Time;durP1;ratioP1;P1;durP2;ratioP2;P2;SDS_P1;SDS_P2;PMS_P1;PMS_P2;Temp;Humidity;BMP_temperature;BMP_pressure;BME280_temperature;BME280_humidity;BME280_pressure;Samples;Min_cycle;Max_cycle;Signal;HPM_P1;HPM_P2
2022/11/13 00:01:18;;;;;;;0.77;0.77;;;4.00;1.00;;;;;;5066147;28;20061;-79
2022/11/13 00:03:44;;;;;;;2.40;2.20;;;4.00;1.00;;;;;;5063617;28;20060;-78
2022/11/13 00:06:11;;;;;;;0.52;0.38;;;4.20;1.00;;;;;;5065042;28;20048;-78
2022/11/13 00:08:36;;;;;;;1.35;1.17;;;4.20;1.00;;;;;;5065313;28;20051;-79
2022/11/13 00:11:11;;;;;;;1.05;1.02;;;4.20;1.00;;;;;;5064239;28;20048;-79
2022/11/13 00:13:37;;;;;;;2.35;2.15;;;4.40;1.00;;;;;;5065382;28;20066;-78
2022/11/13 00:16:06;;;;;;;0.85;0.77;;;4.30;1.00;;;;;;5065356;28;20041;-79
2022/11/13 00:18:34;;;;;;;1.45;1.05;;;4.30;1.00;;;;;;5064265;28;20044;-79
2022/11/13 00:21:23;;;;;;;0.47;0.47;;;4.40;1.00;;;;;;5064847;28;20072;-79
2022/11/13 00:23:50;;;;;;;0.65;0.65;;;4.50;1.00;;;;;;5064713;28;20053;-79
2022/11/13 00:26:19;;;;;;;0.90;0.82;;;4.40;1.00;;;;;;5064293;28;20466;-80
2022/11/13 00:28:45;;;;;;;1.73;1.48;;;4.50;1.00;;;;;;5065023;28;20092;-78
2022/11/13 00:31:12;;;;;;;0.60;0.60;;;4.50;1.00;;;;;;5065316;28;20064;-79
2022/11/13 00:33:38;;;;;;;1.80;1.40;;;4.50;1.00;;;;;;5063051;28;20129;-78
2022/11/13 00:36:07;;;;;;;0.65;0.65;;;4.60;1.00;;;;;;5064473;28;20459;-79
2022/11/13 00:38:33;;;;;;;1.40;1.30;;;4.70;1.00;;;;;;5065105;28;20052;-79
2022/11/13 00:40:59;;;;;;;1.00;0.95;;;4.70;1.00;;;;;;5065314;28;20052;-79
2022/11/13 00:43:26;;;;;;;2.65;0.80;;;4.80;1.00;;;;;;5065298;28;20029;-78
2022/11/13 00:45:51;;;;;;;1.42;1.33;;;4.70;1.00;;;;;;5065139;28;20410;-79
2022/11/13 00:48:17;;;;;;;1.35;1.25;;;4.80;1.00;;;;;;5065022;28;20053;-79
2022/11/13 00:50:43;;;;;;;0.85;0.65;;;4.80;1.00;;;;;;5065376;28;20048;-79
2022/11/13 00:53:09;;;;;;;1.10;1.00;;;4.80;1.00;;;;;;5065512;28;20949;-79
2022/11/13 00:55:34;;;;;;;1.23;1.10;;;4.70;1.00;;;;;;5065260;28;20060;-79
2022/11/13 00:58:00;;;;;;;0.75;0.75;;;4.80;1.00;;;;;;5064598;28;20088;-79
2022/11/13 01:00:26;;;;;;;6.20;1.90;;;4.80;1.00;;;;;;5064300;28;20054;-79
2022/11/13 01:02:52;;;;;;;2.75;0.98;;;4.80;1.00;;;;;;5064502;28;20095;-79
2022/11/13 01:05:17;;;;;;;0.00;0.00;;;4.70;1.00;;;;;;5064440;28;20049;-78
2022/11/13 01:07:43;;;;;;;3.13;1.80;;;4.70;1.00;;;;;;5064225;28;20053;-78
2022/11/13 01:10:09;;;;;;;0.35;0.35;;;4.70;1.00;;;;;;5051184;28;20036;-79
2022/11/13 01:12:34;;;;;;;1.17;1.08;;;4.70;1.00;;;;;;5051668;28;20056;-79
2022/11/13 01:15:00;;;;;;;4.80;3.35;;;4.70;1.00;;;;;;5050679;28;20045;-79
2022/11/13 01:17:26;;;;;;;1.27;1.17;;;4.70;1.00;;;;;;5050636;28;20149;-78
2022/11/13 01:19:51;;;;;;;16.98;0.93;;;4.70;1.00;;;;;;5051757;28;20124;-79
2022/11/13 01:22:17;;;;;;;1.17;0.85;;;4.70;1.00;;;;;;5051359;28;20131;-79
2022/11/13 01:24:43;;;;;;;0.50;0.50;;;5.60;1.00;;;;;;5051008;28;20052;-79
2022/11/13 01:27:08;;;;;;;0.50;0.50;;;4.70;1.00;;;;;;5050903;28;20040;-78
2022/11/13 01:29:35;;;;;;;0.45;0.38;;;4.70;1.00;;;;;;5050792;28;20051;-79
2022/11/13 01:32:01;;;;;;;3.42;2.05;;;4.70;1.00;;;;;;5050569;28;20510;-79
2022/11/13 01:34:27;;;;;;;1.52;1.35;;;4.70;1.00;;;;;;5050846;28;20044;-79
2022/11/13 01:36:52;;;;;;;0.32;0.32;;;4.70;1.00;;;;;;5050939;28;20203;-78
2022/11/13 01:39:18;;;;;;;5.07;2.05;;;4.70;1.00;;;;;;5050667;28;20049;-78
2022/11/13 01:41:44;;;;;;;2.00;1.70;;;4.70;1.00;;;;;;5050539;28;20134;-79
2022/11/13 01:44:14;;;;;;;1.02;1.02;;;4.70;1.00;;;;;;5050260;28;20487;-79
2022/11/13 01:46:54;;;;;;;1.02;1.00;;;4.70;1.00;;;;;;5051250;28;20080;-79
2022/11/13 01:49:33;;;;;;;1.95;1.42;;;4.70;1.00;;;;;;5051365;28;20495;-78
2022/11/13 01:52:12;;;;;;;0.82;0.73;;;4.70;1.00;;;;;;5051615;28;20048;-79
2022/11/13 01:54:45;;;;;;;1.65;1.45;;;4.60;1.00;;;;;;5051391;28;20123;-79
2022/11/13 01:57:12;;;;;;;5.43;2.70;;;4.60;1.00;;;;;;5050396;28;20061;-79
2022/11/13 01:59:40;;;;;;;0.50;0.50;;;4.60;1.00;;;;;;5048969;28;20180;-79
2022/11/13 02:02:06;;;;;;;0.60;0.60;;;4.60;1.00;;;;;;5051730;28;20055;-79
2022/11/13 02:04:33;;;;;;;1.20;0.85;;;4.60;1.00;;;;;;5050764;28;20041;-79
2022/11/13 02:07:03;;;;;;;1.23;1.15;;;4.60;1.00;;;;;;5050515;28;20407;-79
2022/11/13 02:09:42;;;;;;;1.35;1.25;;;4.60;1.00;;;;;;5050837;28;20064;-79
2022/11/13 02:12:15;;;;;;;1.67;1.45;;;4.70;1.00;;;;;;5050991;28;20084;-78
2022/11/13 02:14:45;;;;;;;1.98;1.77;;;4.80;1.00;;;;;;5049507;28;20055;-79
2022/11/13 02:17:19;;;;;;;1.25;1.15;;;4.90;1.00;;;;;;5050738;28;20628;-79
2022/11/13 02:19:50;;;;;;;1.38;1.17;;;4.90;1.00;;;;;;5050464;28;20403;-78
2022/11/13 02:22:39;;;;;;;1.55;1.35;;;4.90;1.00;;;;;;5051363;28;20055;-79
2022/11/13 02:25:06;;;;;;;0.85;0.77;;;5.00;1.00;;;;;;5051397;28;20057;-79
2022/11/13 02:27:40;;;;;;;2.00;1.23;;;5.10;1.00;;;;;;5050827;28;20589;-79
2022/11/13 02:30:23;;;;;;;2.10;1.65;;;5.10;1.00;;;;;;5053038;28;20055;-79
2022/11/13 02:32:51;;;;;;;6.18;1.92;;;5.20;1.00;;;;;;5047200;28;20179;-79
2022/11/13 02:35:37;;;;;;;0.85;0.50;;;5.20;1.00;;;;;;5052888;28;20068;-79
2022/11/13 02:38:05;;;;;;;1.95;1.70;;;5.10;1.00;;;;;;5051406;28;20514;-79
2022/11/13 02:40:32;;;;;;;1.95;1.15;;;5.20;1.00;;;;;;5053155;28;20118;-79
2022/11/13 02:42:57;;;;;;;1.33;1.23;;;5.20;1.00;;;;;;5052715;28;20540;-79
2022/11/13 02:45:23;;;;;;;4.75;2.08;;;5.20;1.00;;;;;;5052591;28;20053;-79
2022/11/13 02:47:49;;;;;;;0.80;0.80;;;5.30;1.00;;;;;;5052267;28;20060;-79
2022/11/13 02:50:15;;;;;;;1.08;0.52;;;5.40;1.00;;;;;;5052631;28;20129;-79
2022/11/13 02:52:41;;;;;;;1.48;1.38;;;5.30;1.00;;;;;;5051983;28;20123;-79
2022/11/13 02:55:07;;;;;;;1.15;0.63;;;5.40;1.00;;;;;;5052322;28;20049;-79
2022/11/13 02:57:33;;;;;;;1.50;1.02;;;5.30;1.00;;;;;;5115713;22;20056;-76
2022/11/13 02:59:58;;;;;;;2.60;2.40;;;5.40;1.00;;;;;;5086215;28;20051;-75
2022/11/13 03:02:24;;;;;;;2.30;1.23;;;5.40;1.00;;;;;;5103087;28;20051;-75
2022/11/13 03:04:49;;;;;;;1.17;0.82;;;5.40;1.00;;;;;;5084164;28;20190;-75
2022/11/13 03:07:15;;;;;;;2.03;1.90;;;5.40;1.00;;;;;;5098831;28;20368;-74
2022/11/13 03:09:41;;;;;;;2.72;1.85;;;5.40;1.00;;;;;;5083661;28;20040;-76
2022/11/13 03:12:08;;;;;;;0.95;0.93;;;5.40;1.00;;;;;;5083318;28;20040;-76
2022/11/13 03:14:34;;;;;;;0.90;0.77;;;5.40;1.00;;;;;;5094837;28;20109;-75
2022/11/13 03:17:00;;;;;;;1.25;1.15;;;5.30;1.00;;;;;;5101130;28;20044;-74
2022/11/13 03:19:26;;;;;;;2.53;2.03;;;5.30;1.00;;;;;;5099297;28;20055;-75
2022/11/13 03:21:51;;;;;;;1.20;1.10;;;5.20;1.00;;;;;;5095198;28;20481;-75
2022/11/13 03:24:17;;;;;;;1.80;1.70;;;5.10;1.00;;;;;;5096995;28;20040;-73
2022/11/13 03:26:43;;;;;;;0.93;0.88;;;5.00;1.00;;;;;;5097319;28;20044;-74
2022/11/13 03:29:08;;;;;;;5.55;2.67;;;4.90;1.00;;;;;;5096320;28;20189;-73
2022/11/13 03:31:34;;;;;;;0.88;0.88;;;4.80;1.00;;;;;;5066238;28;20040;-75
2022/11/13 03:34:00;;;;;;;1.02;0.77;;;4.80;1.00;;;;;;5077465;28;20037;-75
2022/11/13 03:36:25;;;;;;;2.30;1.48;;;5.20;1.00;;;;;;5085767;28;20054;-75
2022/11/13 03:38:51;;;;;;;1.83;0.90;;;4.60;99.90;;;;;;5098714;28;20044;-74
2022/11/13 03:41:17;;;;;;;1.58;1.48;;;4.60;99.90;;;;;;5096869;28;20028;-75
2022/11/13 03:43:42;;;;;;;0.22;0.22;;;4.50;99.90;;;;;;5097410;28;20162;-76
2022/11/13 03:46:08;;;;;;;0.95;0.90;;;4.50;99.90;;;;;;5096622;28;20037;-76
2022/11/13 03:48:34;;;;;;;3.78;2.63;;;4.40;99.90;;;;;;5099584;28;20146;-76
2022/11/13 03:51:00;;;;;;;1.40;0.93;;;4.30;99.90;;;;;;5083211;28;20043;-77
2022/11/13 03:53:25;;;;;;;0.38;0.38;;;4.40;99.90;;;;;;5101230;28;20129;-73
2022/11/13 03:55:51;;;;;;;0.45;0.45;;;4.20;99.90;;;;;;5081221;28;20044;-75
2022/11/13 03:58:17;;;;;;;0.82;0.82;;;4.30;99.90;;;;;;5095318;28;20059;-76
2022/11/13 04:00:44;;;;;;;0.70;0.70;;;4.20;99.90;;;;;;5074292;28;20105;-75
2022/11/13 04:03:09;;;;;;;1.48;1.35;;;4.30;99.90;;;;;;5094604;28;20044;-75
2022/11/13 04:05:35;;;;;;;3.13;1.60;;;4.40;99.90;;;;;;5072925;28;20095;-77
2022/11/13 04:08:01;;;;;;;3.55;2.28;;;4.40;99.90;;;;;;5056958;28;20059;-72
2022/11/13 04:10:27;;;;;;;2.28;0.85;;;4.40;99.90;;;;;;5037713;28;20045;-74
2022/11/13 04:12:52;;;;;;;1.33;1.23;;;4.40;99.90;;;;;;5057469;28;20113;-75
2022/11/13 04:15:18;;;;;;;2.05;1.02;;;4.30;99.90;;;;;;5060668;28;20056;-75
2022/11/13 04:17:43;;;;;;;1.55;1.35;;;4.20;99.90;;;;;;5060241;28;20125;-74
2022/11/13 04:20:09;;;;;;;0.13;0.13;;;4.40;99.90;;;;;;5061535;28;20091;-75
2022/11/13 04:22:36;;;;;;;1.60;1.50;;;4.20;99.90;;;;;;5059555;28;20048;-75
2022/11/13 04:25:02;;;;;;;0.20;0.20;;;4.20;99.90;;;;;;5059522;28;20079;-76
2022/11/13 04:27:28;;;;;;;2.65;1.05;;;4.20;99.90;;;;;;5063907;28;20045;-73
2022/11/13 04:29:53;;;;;;;0.50;0.45;;;4.20;99.90;;;;;;5059634;28;20128;-74
2022/11/13 04:32:19;;;;;;;1.02;0.93;;;4.10;99.90;;;;;;5059045;28;20053;-73
2022/11/13 04:34:44;;;;;;;1.00;0.98;;;4.10;99.90;;;;;;5059850;28;20075;-74
2022/11/13 04:37:10;;;;;;;1.88;1.75;;;4.20;99.90;;;;;;5059690;28;20041;-76
2022/11/13 04:39:36;;;;;;;0.50;0.50;;;4.30;99.90;;;;;;5042682;28;20052;-76
2022/11/13 04:44:45;;;;;;;0.22;0.22;;;4.50;99.90;;;;;;5062218;28;20052;-74
2022/11/13 04:47:11;;;;;;;0.85;0.85;;;4.50;99.90;;;;;;5075125;28;20031;-76
2022/11/13 04:49:37;;;;;;;1.60;1.05;;;4.50;99.90;;;;;;5083786;28;20348;-75
2022/11/13 04:52:02;;;;;;;0.45;0.43;;;4.50;99.90;;;;;;5083017;28;20020;-74
2022/11/13 04:54:28;;;;;;;0.55;0.55;;;4.50;99.90;;;;;;5083814;28;20075;-74
2022/11/13 04:56:54;;;;;;;0.98;0.93;;;4.50;99.90;;;;;;5082909;28;20053;-76
2022/11/13 04:59:19;;;;;;;0.77;0.77;;;4.50;99.90;;;;;;5083365;28;20048;-76
2022/11/13 05:01:45;;;;;;;1.52;1.42;;;4.40;99.90;;;;;;5083193;28;20060;-74
2022/11/13 05:04:14;;;;;;;0.82;0.80;;;4.30;99.90;;;;;;5049582;28;20048;-74
2022/11/13 05:06:41;;;;;;;0.85;0.85;;;4.30;99.90;;;;;;5082714;28;20033;-76
2022/11/13 05:09:06;;;;;;;1.05;0.98;;;4.20;99.90;;;;;;5083398;28;20066;-75
2022/11/13 05:11:32;;;;;;;3.42;2.17;;;4.10;99.90;;;;;;5083033;28;20041;-76
2022/11/13 05:13:58;;;;;;;0.65;0.65;;;4.10;99.90;;;;;;5082950;28;20044;-75
2022/11/13 05:16:23;;;;;;;0.30;0.30;;;4.00;99.90;;;;;;5080431;28;20040;-76
2022/11/13 05:18:49;;;;;;;3.22;2.47;;;4.00;99.90;;;;;;5079015;28;20045;-74
2022/11/13 05:21:14;;;;;;;1.13;1.02;;;4.00;99.90;;;;;;5080448;28;20052;-73
2022/11/13 05:23:40;;;;;;;2.95;2.70;;;4.00;99.90;;;;;;5080363;28;20509;-75
2022/11/13 05:26:11;;;;;;;2.20;1.17;;;4.00;99.90;;;;;;5064251;28;20031;-76
2022/11/13 05:28:38;;;;;;;0.70;0.70;;;4.00;99.90;;;;;;5080327;28;20052;-76
2022/11/13 05:31:05;;;;;;;0.50;0.50;;;3.90;99.90;;;;;;5065529;28;20060;-74
2022/11/13 05:33:31;;;;;;;1.40;0.70;;;3.70;99.90;;;;;;5082654;28;20434;-76
2022/11/13 05:36:02;;;;;;;2.25;1.33;;;3.70;99.90;;;;;;5082746;28;20040;-75
2022/11/13 05:38:28;;;;;;;1.45;1.35;;;3.60;99.90;;;;;;5066855;28;20040;-74
2022/11/13 05:40:54;;;;;;;1.55;1.15;;;3.60;99.90;;;;;;5063598;28;20032;-77
2022/11/13 05:43:19;;;;;;;0.47;0.30;;;3.60;99.90;;;;;;5046096;28;20069;-77
2022/11/13 05:45:45;;;;;;;0.80;0.80;;;3.70;99.90;;;;;;5063007;28;20041;-77
2022/11/13 05:48:10;;;;;;;2.08;0.95;;;3.50;99.90;;;;;;5044971;28;20122;-76
2022/11/13 05:50:36;;;;;;;1.88;1.27;;;3.40;99.90;;;;;;5062805;28;20063;-77
2022/11/13 05:53:13;;;;;;;1.00;1.00;;;3.40;99.90;;;;;;5044641;28;20131;-76
2022/11/13 05:55:39;;;;;;;0.20;0.20;;;3.40;99.90;;;;;;5061906;28;20045;-75
2022/11/13 05:58:04;;;;;;;3.00;0.75;;;3.30;99.90;;;;;;5060221;28;20052;-76
2022/11/13 06:00:30;;;;;;;1.42;1.33;;;3.30;99.90;;;;;;5060924;28;20414;-75
2022/11/13 06:03:14;;;;;;;1.08;0.60;;;3.20;99.90;;;;;;5060878;28;20041;-77
2022/11/13 06:05:39;;;;;;;0.10;0.10;;;3.20;99.90;;;;;;5041136;28;20044;-75
2022/11/13 06:08:05;;;;;;;1.77;1.65;;;3.20;99.90;;;;;;5061533;28;20516;-76
2022/11/13 06:10:30;;;;;;;2.10;0.40;;;3.30;99.90;;;;;;5061374;28;20056;-77
2022/11/13 06:12:56;;;;;;;0.65;0.63;;;3.30;99.90;;;;;;5060485;28;20142;-76
2022/11/13 06:15:21;;;;;;;0.32;0.32;;;3.30;99.90;;;;;;5042142;28;20060;-75
2022/11/13 06:17:47;;;;;;;0.20;0.20;;;3.20;99.90;;;;;;5056913;28;20104;-76
2022/11/13 06:20:14;;;;;;;1.10;0.75;;;3.20;99.90;;;;;;5057503;28;20055;-76
2022/11/13 06:22:40;;;;;;;1.70;1.25;;;3.10;99.90;;;;;;5039375;28;20191;-74
2022/11/13 06:25:06;;;;;;;0.65;0.50;;;3.10;99.90;;;;;;5053661;28;20076;-74
2022/11/13 06:27:31;;;;;;;0.75;0.75;;;3.20;99.90;;;;;;5058799;28;20493;-74
2022/11/13 06:29:57;;;;;;;1.35;1.23;;;3.20;99.90;;;;;;5074969;28;20069;-74
2022/11/13 06:32:22;;;;;;;0.55;0.55;;;3.20;99.90;;;;;;5075208;28;20333;-75
2022/11/13 06:34:48;;;;;;;2.65;1.48;;;3.10;99.90;;;;;;5075240;28;20056;-74
2022/11/13 06:37:14;;;;;;;0.60;0.60;;;3.10;99.90;;;;;;5075821;28;20096;-74
2022/11/13 06:39:39;;;;;;;1.20;1.10;;;3.10;99.90;;;;;;5077311;28;20112;-76
2022/11/13 06:42:05;;;;;;;0.57;0.43;;;3.00;99.90;;;;;;5078271;28;20107;-74
2022/11/13 06:44:30;;;;;;;0.28;0.28;;;2.90;99.90;;;;;;5075639;28;20045;-74
2022/11/13 06:46:56;;;;;;;1.08;0.98;;;2.80;99.90;;;;;;5076713;28;20650;-76
2022/11/13 06:49:22;;;;;;;0.40;0.40;;;2.80;99.90;;;;;;5070135;28;20077;-77
2022/11/13 06:51:47;;;;;;;0.10;0.10;;;2.80;99.90;;;;;;5074566;28;20071;-74
2022/11/13 06:54:13;;;;;;;1.52;1.30;;;2.80;99.90;;;;;;5072699;28;20104;-77
2022/11/13 06:56:44;;;;;;;2.65;1.85;;;3.00;99.90;;;;;;5071990;28;20317;-77
2022/11/13 06:59:10;;;;;;;0.35;0.35;;;3.00;99.90;;;;;;5072942;28;20189;-75
2022/11/13 07:01:36;;;;;;;0.50;0.50;;;3.10;99.90;;;;;;5072649;28;20041;-75
2022/11/13 07:04:03;;;;;;;0.20;0.20;;;3.10;99.90;;;;;;5074571;28;20066;-74
2022/11/13 07:06:29;;;;;;;0.13;0.13;;;3.10;99.90;;;;;;5057315;28;20060;-76
2022/11/13 07:08:54;;;;;;;0.77;0.77;;;3.10;99.90;;;;;;5035600;28;20049;-76
2022/11/13 07:11:21;;;;;;;0.77;0.50;;;3.10;99.90;;;;;;5052726;28;20045;-76
2022/11/13 07:13:48;;;;;;;1.33;0.85;;;3.10;99.90;;;;;;5064846;28;20347;-74
2022/11/13 07:16:14;;;;;;;2.40;2.08;;;3.10;99.90;;;;;;5074013;28;20106;-75
2022/11/13 07:18:40;;;;;;;0.75;0.63;;;3.10;99.90;;;;;;5074148;28;20052;-75
2022/11/13 07:21:09;;;;;;;0.10;0.10;;;3.10;99.90;;;;;;5074427;28;20044;-74
2022/11/13 07:23:38;;;;;;;0.63;0.63;;;3.10;99.90;;;;;;5074029;28;20278;-75
2022/11/13 07:26:04;;;;;;;0.25;0.25;;;3.10;99.90;;;;;;5057080;28;20098;-74
2022/11/13 07:28:30;;;;;;;0.70;0.70;;;3.10;99.90;;;;;;5071715;28;20043;-75
2022/11/13 07:30:57;;;;;;;1.52;1.42;;;3.10;99.90;;;;;;5072976;28;20052;-75
2022/11/13 07:33:23;;;;;;;0.55;0.55;;;3.10;99.90;;;;;;5066474;28;20076;-76
2022/11/13 07:35:49;;;;;;;1.15;0.60;;;3.10;99.90;;;;;;5052218;28;20053;-74
2022/11/13 07:38:14;;;;;;;0.40;0.40;;;3.10;99.90;;;;;;5052874;28;20041;-76
2022/11/13 07:40:40;;;;;;;0.95;0.88;;;3.20;99.90;;;;;;5051355;28;20037;-76
2022/11/13 07:43:06;;;;;;;0.30;0.30;;;3.20;99.90;;;;;;5051792;28;20339;-75
2022/11/13 07:45:31;;;;;;;0.98;0.98;;;3.30;99.90;;;;;;5051777;28;20045;-76
2022/11/13 07:48:01;;;;;;;1.40;1.30;;;3.30;99.90;;;;;;5051729;28;20052;-73
2022/11/13 07:50:29;;;;;;;0.65;0.65;;;3.40;99.90;;;;;;5049933;28;20064;-76
2022/11/13 07:53:00;;;;;;;0.93;0.93;;;3.50;99.90;;;;;;5050191;28;20044;-76
2022/11/13 07:55:26;;;;;;;5.03;2.25;;;3.50;99.90;;;;;;5050456;28;20068;-76
2022/11/13 07:57:58;;;;;;;2.00;1.70;;;3.60;99.90;;;;;;5051629;28;20061;-74
2022/11/13 08:00:25;;;;;;;0.98;0.82;;;3.60;99.90;;;;;;5072957;28;20036;-76
2022/11/13 08:02:51;;;;;;;7.97;1.45;;;3.70;99.90;;;;;;5073191;28;20487;-75
2022/11/13 08:05:17;;;;;;;1.42;1.33;;;3.70;99.90;;;;;;5072884;28;20098;-74
2022/11/13 08:07:45;;;;;;;1.45;1.15;;;3.80;99.90;;;;;;5073328;28;20100;-75
2022/11/13 08:10:11;;;;;;;0.10;0.10;;;3.80;99.90;;;;;;5053659;28;20413;-74
2022/11/13 08:12:36;;;;;;;3.28;1.65;;;3.90;99.90;;;;;;5053497;28;20045;-74
2022/11/13 08:15:03;;;;;;;0.82;0.80;;;4.00;99.90;;;;;;5053387;28;20045;-76
2022/11/13 08:17:28;;;;;;;0.80;0.80;;;4.10;99.90;;;;;;5035050;28;20052;-76
2022/11/13 08:19:54;;;;;;;0.30;0.30;;;4.10;1.00;;;;;;5037759;28;20045;-75
2022/11/13 08:22:19;;;;;;;1.13;1.02;;;4.20;1.00;;;;;;5055507;28;20090;-76
2022/11/13 08:24:45;;;;;;;0.40;0.40;;;4.30;1.00;;;;;;5054913;28;20052;-76
2022/11/13 08:27:10;;;;;;;0.85;0.43;;;4.30;1.00;;;;;;5055226;28;20048;-75
2022/11/13 08:29:36;;;;;;;1.33;0.88;;;4.40;1.00;;;;;;5054832;28;20040;-74
2022/11/13 08:32:03;;;;;;;2.42;1.17;;;4.40;1.00;;;;;;5056484;28;20095;-74
2022/11/13 08:34:29;;;;;;;0.45;0.45;;;4.40;1.00;;;;;;5073340;28;20079;-73
2022/11/13 08:36:54;;;;;;;1.58;1.48;;;4.50;1.00;;;;;;5062337;28;20040;-76
2022/11/13 08:39:20;;;;;;;0.85;0.82;;;4.70;1.00;;;;;;5080331;28;20094;-74
2022/11/13 08:41:46;;;;;;;2.08;1.63;;;4.70;1.00;;;;;;5080415;28;20055;-76
2022/11/13 08:44:12;;;;;;;1.15;0.93;;;4.80;1.00;;;;;;5080827;28;20152;-75
2022/11/13 08:46:37;;;;;;;2.53;2.33;;;4.80;1.00;;;;;;5079953;28;20048;-76
2022/11/13 08:49:03;;;;;;;1.08;1.05;;;4.90;1.00;;;;;;5080514;28;20112;-76
2022/11/13 08:51:29;;;;;;;1.33;1.05;;;5.00;1.00;;;;;;5080101;28;20534;-74
2022/11/13 08:53:54;;;;;;;2.50;1.90;;;5.20;1.00;;;;;;5055646;28;20110;-77
2022/11/13 08:56:20;;;;;;;0.60;0.60;;;5.20;1.00;;;;;;5059622;28;20392;-76
2022/11/13 08:58:46;;;;;;;3.60;1.85;;;5.20;1.00;;;;;;5056253;28;20044;-74
2022/11/13 09:01:11;;;;;;;2.75;1.48;;;5.30;1.00;;;;;;5058122;28;20124;-75
2022/11/13 09:03:37;;;;;;;0.60;0.60;;;5.30;1.00;;;;;;5049987;28;20048;-76
2022/11/13 09:06:06;;;;;;;1.83;1.73;;;5.40;1.00;;;;;;5081733;28;20574;-74
2022/11/13 09:08:32;;;;;;;0.85;0.85;;;5.50;1.00;;;;;;5080590;28;20075;-76
2022/11/13 09:11:03;;;;;;;0.40;0.40;;;5.60;1.00;;;;;;5071167;28;20059;-75
2022/11/13 09:13:29;;;;;;;1.77;1.40;;;5.70;9.50;;;;;;5081960;28;20052;-76
2022/11/13 09:16:01;;;;;;;0.68;0.68;;;5.80;15.40;;;;;;5066603;28;20041;-74
2022/11/13 09:18:26;;;;;;;1.40;1.13;;;5.80;21.50;;;;;;5062611;28;20644;-76
2022/11/13 09:20:52;;;;;;;1.23;1.13;;;5.90;27.40;;;;;;5062246;28;20053;-74
2022/11/13 09:23:18;;;;;;;1.60;1.50;;;5.90;34.90;;;;;;5063808;28;20043;-76
2022/11/13 09:25:44;;;;;;;2.20;2.08;;;6.00;47.60;;;;;;5060957;28;20198;-76
2022/11/13 09:28:10;;;;;;;1.65;1.55;;;6.10;58.40;;;;;;5060143;28;20052;-76
2022/11/13 09:30:38;;;;;;;1.65;1.17;;;6.10;64.60;;;;;;5058296;28;20063;-75
2022/11/13 09:33:05;;;;;;;2.85;1.60;;;6.20;74.00;;;;;;5058964;28;20098;-74
2022/11/13 09:35:34;;;;;;;7.60;1.67;;;6.30;88.70;;;;;;5058655;28;20231;-75
2022/11/13 09:38:05;;;;;;;3.03;1.50;;;6.40;91.70;;;;;;5060131;28;20041;-76
2022/11/13 09:40:36;;;;;;;0.60;0.40;;;6.40;94.70;;;;;;5069037;28;20060;-74
2022/11/13 09:43:06;;;;;;;2.50;1.63;;;6.50;99.90;;;;;;5052053;28;20378;-75
2022/11/13 09:45:32;;;;;;;0.50;0.50;;;6.50;99.90;;;;;;5081479;28;20068;-76
2022/11/13 09:48:22;;;;;;;1.63;1.33;;;7.80;99.90;;;;;;5081738;28;20052;-74
2022/11/13 09:50:48;;;;;;;1.20;1.10;;;6.80;99.90;;;;;;5080488;28;20058;-76
2022/11/13 09:53:14;;;;;;;0.50;0.50;;;6.80;99.90;;;;;;5081612;28;20064;-74
2022/11/13 09:55:59;;;;;;;0.38;0.38;;;6.90;99.90;;;;;;5082498;28;20092;-77
2022/11/13 09:58:50;;;;;;;2.60;2.08;;;6.90;99.90;;;;;;5079856;28;20053;-75
2022/11/13 10:01:53;;;;;;;5.53;2.45;;;6.60;99.90;;;;;;5061587;28;20055;-75
2022/11/13 10:04:45;;;;;;;2.35;1.90;;;7.00;99.90;;;;;;5061305;28;20160;-73
2022/11/13 10:07:33;;;;;;;2.33;2.13;;;7.00;99.90;;;;;;5027309;28;20079;-74
2022/11/13 10:10:22;;;;;;;3.03;2.28;;;7.00;99.90;;;;;;5061500;28;20037;-74
2022/11/13 10:12:52;;;;;;;0.40;0.40;;;7.20;99.90;;;;;;5061149;28;20486;-76
2022/11/13 10:15:18;;;;;;;1.52;1.17;;;7.20;99.90;;;;;;5040178;28;20095;-75
2022/11/13 10:17:55;;;;;;;1.60;0.95;;;7.30;99.90;;;;;;5071902;28;20048;-76
2022/11/13 10:20:22;;;;;;;1.75;1.55;;;7.40;99.90;;;;;;5079992;28;20056;-76
2022/11/13 10:22:58;;;;;;;0.90;0.85;;;7.40;99.90;;;;;;5077028;28;20040;-76
2022/11/13 10:25:31;;;;;;;1.65;1.55;;;7.40;99.90;;;;;;5081356;28;20170;-76
2022/11/13 10:28:07;;;;;;;1.33;0.90;;;7.40;99.90;;;;;;5079666;28;20063;-77
2022/11/13 10:30:33;;;;;;;2.85;1.77;;;7.40;99.90;;;;;;5079117;28;20094;-74
2022/11/13 10:33:07;;;;;;;1.15;1.05;;;7.50;99.90;;;;;;5078021;28;20096;-75
2022/11/13 10:35:40;;;;;;;1.85;1.17;;;7.50;99.90;;;;;;5077743;28;20086;-75
2022/11/13 10:38:24;;;;;;;2.58;1.00;;;7.50;99.90;;;;;;5060134;28;20507;-76
2022/11/13 10:40:50;;;;;;;1.80;1.52;;;7.60;99.90;;;;;;5077425;28;20444;-75
2022/11/13 10:43:24;;;;;;;1.67;1.35;;;8.00;99.90;;;;;;5076140;28;20052;-75
2022/11/13 10:46:01;;;;;;;2.17;1.92;;;7.60;99.90;;;;;;5076354;28;20075;-75
2022/11/13 10:48:35;;;;;;;1.58;1.23;;;7.70;99.90;;;;;;5075447;28;20044;-75
2022/11/13 10:51:24;;;;;;;0.70;0.70;;;7.90;99.90;;;;;;5055664;28;20090;-74
2022/11/13 10:53:51;;;;;;;0.25;0.25;;;8.10;99.90;;;;;;5054025;28;20045;-75
2022/11/13 10:56:35;;;;;;;0.85;0.85;;;8.20;99.90;;;;;;5053781;28;20041;-74
2022/11/13 10:59:10;;;;;;;2.40;1.70;;;8.30;99.90;;;;;;5054936;28;20048;-73
2022/11/13 11:01:36;;;;;;;1.40;1.30;;;8.50;99.90;;;;;;5053228;28;20045;-74
2022/11/13 11:04:03;;;;;;;3.03;2.50;;;8.60;99.90;;;;;;5053054;28;20091;-73
2022/11/13 11:06:37;;;;;;;1.52;1.35;;;8.70;99.90;;;;;;5055207;28;20463;-73
2022/11/13 11:09:12;;;;;;;1.95;0.68;;;8.70;99.90;;;;;;5073122;28;20048;-75
2022/11/13 11:15:04;;;;;;;2.35;1.23;;;8.90;99.90;;;;;;5070047;28;20052;-74
2022/11/13 11:18:34;;;;;;;;;;;;;;;;;;;;;
2022/11/13 11:21:27;;;;;;;3.08;1.42;;;9.10;99.90;;;;;;4988417;28;20052;-75
2022/11/13 11:23:56;;;;;;;1.08;0.77;;;9.20;99.90;;;;;;4988573;28;20092;-75
2022/11/13 11:26:38;;;;;;;0.80;0.80;;;9.30;99.90;;;;;;4989635;28;20132;-74
2022/11/13 11:29:41;;;;;;;5.07;2.15;;;9.40;99.90;;;;;;5010780;28;20081;-75
2022/11/13 11:32:30;;;;;;;1.98;0.57;;;9.50;99.90;;;;;;5050339;28;20053;-74
2022/11/13 11:35:18;;;;;;;2.60;2.22;;;9.80;99.90;;;;;;5031592;28;20410;-75
2022/11/13 11:38:01;;;;;;;1.25;1.00;;;9.90;99.90;;;;;;5050167;28;20053;-75
2022/11/13 11:40:35;;;;;;;1.30;1.20;;;10.20;99.90;;;;;;5015548;28;20084;-74
2022/11/13 11:43:11;;;;;;;1.40;1.30;;;10.40;99.90;;;;;;5031015;28;20110;-76
2022/11/13 11:45:45;;;;;;;1.35;1.20;;;10.50;99.90;;;;;;5037814;28;20048;-74
2022/11/13 11:48:15;;;;;;;1.75;0.75;;;10.80;1.00;;;;;;5069989;28;20044;-76
2022/11/13 11:50:56;;;;;;;1.10;0.88;;;10.90;99.90;;;;;;5070368;28;20049;-76
2022/11/13 11:53:24;;;;;;;6.15;1.90;;;11.00;24.20;;;;;;5056291;28;20080;-75
2022/11/13 11:56:16;;;;;;;2.00;1.33;;;11.20;1.00;;;;;;5050216;28;20101;-75
2022/11/13 11:58:57;;;;;;;0.43;0.43;;;11.40;99.90;;;;;;5051856;28;20094;-75
2022/11/13 12:01:49;;;;;;;1.70;1.52;;;11.40;99.90;;;;;;5033392;28;20052;-76
2022/11/13 12:04:33;;;;;;;1.48;1.30;;;11.50;99.90;;;;;;5050236;28;20040;-75
2022/11/13 12:07:21;;;;;;;1.52;0.77;;;11.60;99.90;;;;;;5049402;28;20387;-76
2022/11/13 12:09:52;;;;;;;3.40;2.58;;;11.70;99.90;;;;;;5061389;28;20059;-76
2022/11/13 12:12:52;;;;;;;1.27;0.73;;;11.80;99.90;;;;;;5052490;28;20422;-75
2022/11/13 12:15:44;;;;;;;1.15;0.73;;;11.80;99.90;;;;;;5053282;28;20075;-75
2022/11/13 12:18:47;;;;;;;0.73;0.52;;;11.90;1.00;;;;;;5054918;28;20052;-77
2022/11/13 12:21:50;;;;;;;1.13;0.80;;;12.00;46.20;;;;;;5051200;28;20099;-76
2022/11/13 12:24:52;;;;;;;2.17;1.08;;;12.00;70.60;;;;;;5050039;28;20076;-76
2022/11/13 12:27:37;;;;;;;2.35;1.42;;;12.20;99.90;;;;;;5021063;28;20056;-75
2022/11/13 12:30:15;;;;;;;0.52;0.50;;;12.30;99.90;;;;;;5052592;28;20125;-75
2022/11/13 12:33:09;;;;;;;1.30;1.08;;;12.30;99.90;;;;;;5067979;28;20049;-76
2022/11/13 12:35:35;;;;;;;0.80;0.52;;;12.30;1.00;;;;;;5074661;28;20092;-75
2022/11/13 12:38:20;;;;;;;1.48;0.95;;;12.30;1.00;;;;;;5040545;28;20063;-77
2022/11/13 12:40:55;;;;;;;0.82;0.55;;;12.40;99.90;;;;;;5073538;28;20055;-76
2022/11/13 12:43:35;;;;;;;1.85;1.23;;;12.50;99.90;;;;;;5071010;28;20442;-76
2022/11/13 12:46:09;;;;;;;0.52;0.47;;;12.50;72.80;;;;;;5045899;28;20071;-74
2022/11/13 12:48:41;;;;;;;0.90;0.88;;;12.60;63.00;;;;;;5068925;28;20036;-75
2022/11/13 12:51:09;;;;;;;0.90;0.70;;;12.70;20.40;;;;;;5069926;28;20041;-75
2022/11/13 12:54:02;;;;;;;0.75;0.75;;;12.90;99.90;;;;;;5068948;28;20055;-75
2022/11/13 12:56:31;;;;;;;1.40;1.02;;;13.00;1.00;;;;;;5064999;28;20060;-75
2022/11/13 12:59:02;;;;;;;3.65;1.42;;;13.00;99.90;;;;;;5068968;28;20096;-75
2022/11/13 13:01:33;;;;;;;3.40;0.90;;;13.00;61.30;;;;;;5068310;28;20063;-76
2022/11/13 13:04:32;;;;;;;1.42;0.98;;;13.00;26.10;;;;;;5068150;28;20055;-76
2022/11/13 13:07:13;;;;;;;1.27;1.10;;;13.10;99.90;;;;;;5072998;28;20052;-76
2022/11/13 13:09:41;;;;;;;0.50;0.47;;;13.10;94.70;;;;;;5071717;28;20055;-74
2022/11/13 13:12:33;;;;;;;0.65;0.65;;;12.90;99.90;;;;;;5062101;28;20612;-75
2022/11/13 13:15:24;;;;;;;1.60;1.13;;;12.70;99.90;;;;;;5036906;28;20045;-75
2022/11/13 13:18:11;;;;;;;1.13;0.75;;;12.40;1.00;;;;;;5036963;28;20069;-75
2022/11/13 13:20:39;;;;;;;0.73;0.50;;;12.30;99.90;;;;;;5055513;28;20057;-76
2022/11/13 13:23:10;;;;;;;3.80;2.08;;;12.50;9.20;;;;;;5060091;28;20037;-76